Time;durP1;ratioP1;P1;durP2;ratioP2;P2;SDS_P1;SDS_P2;PMS_P1;PMS_P2;Temp;Humidity;BMP_temperature;BMP_pressure;BME280_temperature;BME280_humidity;BME280_pressure;Samples;Min_cycle;Max_cycle;Signal;HPM_P1;HPM_P2
2023/09/22 05:19:20;;;;;;;7.43;4.80;;;25.00;63.00;;;;;;7592488;22;99963;-51
2023/09/22 05:22:21;;;;;;;8.85;4.40;;;25.00;63.00;;;;;;7675801;22;80509;-49
2023/09/22 05:25:21;;;;;;;7.95;4.75;;;25.00;63.00;;;;;;7674907;22;80587;-58
2023/09/22 05:28:22;;;;;;;8.93;4.47;;;25.00;62.90;;;;;;7667111;22;82002;-51
2023/09/22 05:31:22;;;;;;;8.18;4.53;;;25.00;63.10;;;;;;7668343;22;81250;-54
2023/09/22 05:34:23;;;;;;;9.35;4.43;;;25.00;63.40;;;;;;7676665;22;81026;-54
2023/09/22 05:37:23;;;;;;;13.02;4.85;;;25.00;63.70;;;;;;7676564;22;80452;-55
2023/09/22 05:40:25;;;;;;;8.50;4.68;;;25.00;64.30;;;;;;7677075;22;80704;-54
2023/09/22 05:43:27;;;;;;;10.15;5.45;;;25.00;64.80;;;;;;7677616;22;80469;-59
2023/09/22 05:46:31;;;;;;;8.35;4.72;;;25.00;65.60;;;;;;7648644;22;83443;-59
2023/09/22 05:49:31;;;;;;;10.77;4.93;;;24.90;65.60;;;;;;7676884;22;80408;-59
2023/09/22 05:52:32;;;;;;;7.28;4.25;;;25.00;66.10;;;;;;7633229;22;80473;-59
2023/09/22 05:55:33;;;;;;;12.65;5.00;;;24.90;66.00;;;;;;7677486;22;80797;-59
2023/09/22 05:58:33;;;;;;;10.90;4.30;;;25.00;67.50;;;;;;7580225;22;81278;-60
2023/09/22 06:01:37;;;;;;;12.63;4.45;;;25.00;67.00;;;;;;7529992;22;82000;-66
2023/09/22 06:04:38;;;;;;;14.65;5.78;;;25.00;67.70;;;;;;7528880;22;81907;-61
2023/09/22 06:07:38;;;;;;;12.90;4.95;;;25.00;67.90;;;;;;7529498;22;82153;-60
2023/09/22 06:10:39;;;;;;;15.00;5.05;;;25.00;67.60;;;;;;7531163;22;82199;-60
2023/09/22 06:13:39;;;;;;;9.85;5.18;;;25.00;68.40;;;;;;7524657;22;81596;-58
2023/09/22 06:16:40;;;;;;;7.88;4.68;;;25.00;67.40;;;;;;7507972;22;82906;-58
2023/09/22 06:19:41;;;;;;;6.82;4.55;;;25.00;67.60;;;;;;7526914;22;81601;-58
2023/09/22 06:22:42;;;;;;;15.20;4.95;;;25.00;67.80;;;;;;7507668;22;81760;-55
2023/09/22 06:25:42;;;;;;;12.30;5.45;;;25.00;67.40;;;;;;7526904;22;81445;-59
2023/09/22 06:28:43;;;;;;;7.43;4.97;;;25.10;67.90;;;;;;7525779;22;81233;-57
2023/09/22 06:31:43;;;;;;;11.88;5.03;;;25.00;68.60;;;;;;7528146;22;82032;-57
2023/09/22 06:34:44;;;;;;;10.07;5.32;;;25.10;68.80;;;;;;7501117;22;82503;-56
2023/09/22 06:37:45;;;;;;;10.00;4.75;;;25.10;68.40;;;;;;7526714;22;82314;-50
2023/09/22 06:40:46;;;;;;;9.73;5.25;;;25.10;68.10;;;;;;7526157;22;81931;-58
2023/09/22 06:43:46;;;;;;;16.08;5.57;;;25.10;67.90;;;;;;7498738;22;83677;-56
2023/09/22 06:46:49;;;;;;;9.95;4.72;;;25.10;67.90;;;;;;7526478;22;81899;-58
2023/09/22 06:49:50;;;;;;;10.13;5.28;;;25.10;68.80;;;;;;7524208;22;81932;-56
2023/09/22 06:52:51;;;;;;;13.40;5.38;;;25.10;68.80;;;;;;7525045;22;81621;-56
2023/09/22 06:55:53;;;;;;;9.98;4.47;;;25.10;68.10;;;;;;7523059;22;82150;-56
2023/09/22 06:58:53;;;;;;;10.10;5.15;;;25.20;68.60;;;;;;7501115;22;81808;-55
2023/09/22 07:01:54;;;;;;;10.98;5.10;;;25.20;69.40;;;;;;7530485;22;82333;-54
2023/09/22 07:04:55;;;;;;;13.48;5.95;;;25.20;68.40;;;;;;7531527;22;82321;-56
2023/09/22 07:07:55;;;;;;;8.85;5.28;;;25.20;69.10;;;;;;7527476;22;82434;-56
2023/09/22 07:10:56;;;;;;;11.82;5.10;;;25.30;69.00;;;;;;7523479;22;81413;-57
2023/09/22 07:13:56;;;;;;;11.20;5.43;;;25.30;69.40;;;;;;7527314;22;81388;-58
2023/09/22 07:16:57;;;;;;;14.48;5.03;;;25.30;69.70;;;;;;7526387;22;81903;-49
2023/09/22 07:19:57;;;;;;;17.00;6.40;;;25.30;69.20;;;;;;7529532;22;80820;-49
2023/09/22 07:22:58;;;;;;;11.27;5.25;;;25.40;69.00;;;;;;7529400;22;81798;-51
2023/09/22 07:25:58;;;;;;;13.00;5.47;;;25.40;70.00;;;;;;7527475;22;82544;-51
2023/09/22 07:28:59;;;;;;;10.55;6.10;;;25.40;69.00;;;;;;7528749;22;81967;-50
2023/09/22 07:32:00;;;;;;;11.43;6.28;;;25.50;69.90;;;;;;7528965;22;82017;-50
2023/09/22 07:35:01;;;;;;;17.20;5.75;;;25.50;69.90;;;;;;7532481;22;81823;-52
2023/09/22 07:38:02;;;;;;;11.20;6.32;;;25.50;69.80;;;;;;7532888;22;82325;-50
2023/09/22 07:41:03;;;;;;;11.25;5.00;;;25.60;71.40;;;;;;7533714;22;82391;-49
2023/09/22 07:44:04;;;;;;;10.13;5.60;;;25.60;71.30;;;;;;7529910;22;81374;-51
2023/09/22 07:47:10;;;;;;;8.95;5.50;;;25.60;70.40;;;;;;7530648;22;82111;-51
2023/09/22 07:50:11;;;;;;;8.40;5.28;;;25.70;71.40;;;;;;7529793;22;82084;-50
2023/09/22 07:53:12;;;;;;;7.40;5.28;;;25.80;70.60;;;;;;7526825;22;81823;-57
2023/09/22 07:56:14;;;;;;;16.60;6.05;;;25.80;69.20;;;;;;7532772;22;82182;-51
2023/09/22 07:59:14;;;;;;;8.88;5.20;;;25.80;68.80;;;;;;7530049;22;81914;-52
2023/09/22 08:02:17;;;;;;;11.77;5.72;;;25.90;69.20;;;;;;7503534;22;83164;-51
2023/09/22 08:05:18;;;;;;;12.70;4.85;;;25.90;67.30;;;;;;7531500;22;82106;-51
2023/09/22 08:08:19;;;;;;;7.70;5.20;;;25.90;68.70;;;;;;7530392;22;81743;-50
2023/09/22 08:11:19;;;;;;;10.25;5.05;;;25.90;68.60;;;;;;7528535;22;81311;-57
2023/09/22 08:14:21;;;;;;;7.20;4.25;;;26.00;67.30;;;;;;7528749;22;80976;-57
2023/09/22 08:17:22;;;;;;;8.52;4.88;;;26.10;68.80;;;;;;7526004;22;86966;-56
2023/09/22 08:20:22;;;;;;;11.15;4.28;;;26.10;66.80;;;;;;7524357;22;81808;-57
2023/09/22 08:23:23;;;;;;;9.82;4.97;;;26.10;65.70;;;;;;7533725;22;82413;-57
2023/09/22 08:26:24;;;;;;;10.82;4.80;;;26.20;69.00;;;;;;7531350;22;82122;-54
2023/09/22 08:29:24;;;;;;;8.38;4.53;;;26.20;65.60;;;;;;7532725;22;82342;-57
2023/09/22 08:32:25;;;;;;;7.95;4.00;;;26.30;65.80;;;;;;7504181;22;82228;-56
2023/09/22 08:35:26;;;;;;;13.13;4.45;;;26.40;64.30;;;;;;7526771;22;81707;-55
2023/09/22 08:38:27;;;;;;;11.55;3.95;;;26.50;65.40;;;;;;7522984;22;81958;-56
2023/09/22 08:41:27;;;;;;;6.82;4.00;;;26.40;65.60;;;;;;7533560;22;82278;-56
2023/09/22 08:44:28;;;;;;;9.10;3.63;;;26.50;66.50;;;;;;7526195;22;82338;-56
2023/09/22 08:47:29;;;;;;;7.65;4.20;;;26.50;67.30;;;;;;7524296;22;81518;-57
2023/09/22 08:50:29;;;;;;;6.18;3.83;;;26.60;65.70;;;;;;7524802;22;81441;-52
2023/09/22 08:53:30;;;;;;;7.57;3.53;;;26.60;68.00;;;;;;7521090;22;82529;-50
2023/09/22 08:56:30;;;;;;;10.73;3.95;;;26.60;67.20;;;;;;7524378;22;82458;-51
2023/09/22 08:59:31;;;;;;;9.27;3.42;;;26.60;66.00;;;;;;7526018;22;81906;-53
2023/09/22 09:02:31;;;;;;;9.60;4.20;;;26.60;67.30;;;;;;7514163;22;82176;-49
2023/09/22 09:05:32;;;;;;;10.68;4.32;;;26.60;67.40;;;;;;7522852;22;82381;-57
2023/09/22 09:08:34;;;;;;;8.70;4.60;;;26.60;65.70;;;;;;7524258;22;84976;-56
2023/09/22 09:11:35;;;;;;;11.95;4.30;;;26.60;65.10;;;;;;7525588;22;80922;-54
2023/09/22 09:14:36;;;;;;;11.18;4.45;;;26.50;66.70;;;;;;7525957;22;81975;-56
2023/09/22 09:17:36;;;;;;;10.95;4.22;;;26.60;67.10;;;;;;7527817;22;81378;-55
2023/09/22 09:20:39;;;;;;;10.43;5.20;;;26.60;67.20;;;;;;7528703;22;81953;-55
2023/09/22 09:23:41;;;;;;;7.60;4.47;;;26.60;65.20;;;;;;7530241;22;81840;-56
2023/09/22 09:26:41;;;;;;;6.78;4.07;;;26.60;65.80;;;;;;7528464;22;82235;-52
2023/09/22 09:29:42;;;;;;;14.18;5.22;;;26.70;68.00;;;;;;7528574;22;82074;-51
2023/09/22 09:32:42;;;;;;;10.93;3.85;;;26.70;67.60;;;;;;7527529;22;82441;-52
2023/09/22 09:35:43;;;;;;;7.20;3.80;;;26.80;66.50;;;;;;7525309;22;80353;-52
2023/09/22 09:38:43;;;;;;;7.75;3.95;;;26.80;66.70;;;;;;7522841;22;80622;-51
2023/09/22 09:41:44;;;;;;;8.95;3.53;;;26.90;68.10;;;;;;7525821;22;81536;-56
2023/09/22 09:44:47;;;;;;;7.60;2.95;;;26.90;69.40;;;;;;7527276;22;82124;-60
2023/09/22 09:47:48;;;;;;;8.27;3.72;;;27.00;70.80;;;;;;7528401;22;82050;-60
2023/09/22 09:50:51;;;;;;;5.40;3.03;;;27.10;71.70;;;;;;7526674;22;80848;-59
2023/09/22 09:53:52;;;;;;;7.07;2.78;;;27.10;65.10;;;;;;7524904;22;81936;-60
2023/09/22 09:56:52;;;;;;;4.80;2.50;;;27.10;70.00;;;;;;7521782;22;82081;-58
2023/09/22 09:59:53;;;;;;;8.55;2.97;;;27.20;68.70;;;;;;7494071;22;82244;-61
2023/09/22 10:02:57;;;;;;;10.02;2.78;;;27.20;68.90;;;;;;7527630;22;81559;-48
2023/09/22 10:05:57;;;;;;;5.88;2.65;;;27.30;67.30;;;;;;7530933;22;82530;-51
2023/09/22 10:08:58;;;;;;;6.72;1.88;;;27.30;65.40;;;;;;7530007;22;81827;-51
2023/09/22 10:11:58;;;;;;;10.38;2.28;;;27.40;69.90;;;;;;7530151;22;81711;-48
2023/09/22 10:15:04;;;;;;;7.53;2.20;;;27.40;69.10;;;;;;7527842;22;81407;-51
2023/09/22 10:18:05;;;;;;;10.27;2.45;;;27.50;71.50;;;;;;7524531;22;81977;-49
2023/09/22 10:21:05;;;;;;;9.50;2.58;;;27.50;69.20;;;;;;7529279;22;82197;-52
2023/09/22 10:24:06;;;;;;;3.38;1.90;;;27.60;69.10;;;;;;7530765;22;82318;-50
2023/09/22 10:27:07;;;;;;;8.60;2.25;;;27.70;66.70;;;;;;7528555;22;81984;-52
2023/09/22 10:30:08;;;;;;;7.45;2.00;;;27.70;69.50;;;;;;7516778;22;82070;-52
2023/09/22 10:33:09;;;;;;;7.75;2.35;;;27.70;70.80;;;;;;7529651;22;82054;-52
2023/09/22 10:36:10;;;;;;;8.57;1.98;;;27.70;66.60;;;;;;7524634;22;82201;-53
2023/09/22 10:39:10;;;;;;;5.93;2.22;;;27.70;70.70;;;;;;7500189;22;82061;-57
2023/09/22 10:42:11;;;;;;;7.65;2.40;;;27.70;70.20;;;;;;7528663;22;82141;-53
2023/09/22 10:45:11;;;;;;;9.15;2.45;;;27.80;69.10;;;;;;7531470;22;81898;-53
2023/09/22 10:48:12;;;;;;;12.25;2.53;;;27.80;68.50;;;;;;7531414;22;82326;-49
2023/09/22 10:51:14;;;;;;;5.50;2.05;;;27.80;65.50;;;;;;7525796;22;81806;-50
2023/09/22 10:54:16;;;;;;;6.03;2.63;;;27.90;66.90;;;;;;7528656;22;81834;-50
2023/09/22 10:57:17;;;;;;;5.72;2.00;;;27.90;64.40;;;;;;7526277;22;81684;-59
2023/09/22 11:00:18;;;;;;;6.13;2.47;;;27.90;65.30;;;;;;7501094;22;82080;-60
2023/09/22 11:03:19;;;;;;;6.60;2.20;;;28.00;66.10;;;;;;7527920;22;81970;-59
2023/09/22 11:06:22;;;;;;;6.28;2.38;;;28.00;67.60;;;;;;7526653;22;82097;-60
2023/09/22 11:09:23;;;;;;;4.78;2.33;;;28.00;68.20;;;;;;7531483;22;81973;-62
2023/09/22 11:12:23;;;;;;;3.95;2.13;;;28.10;67.50;;;;;;7526716;22;81401;-63
2023/09/22 11:15:24;;;;;;;7.57;1.83;;;28.10;65.70;;;;;;7523272;22;82142;-64
2023/09/22 11:18:24;;;;;;;5.57;2.35;;;28.10;65.60;;;;;;7528713;22;82050;-65
2023/09/22 11:21:25;;;;;;;5.95;2.35;;;28.20;67.00;;;;;;7525705;22;81970;-61
2023/09/22 11:24:27;;;;;;;4.55;2.15;;;28.20;69.80;;;;;;7526939;22;81458;-65
2023/09/22 11:27:28;;;;;;;6.35;3.60;;;28.10;66.20;;;;;;7522307;22;80186;-64
2023/09/22 11:30:28;;;;;;;9.30;2.20;;;28.20;64.90;;;;;;7673304;22;80444;-63
2023/09/22 11:33:29;;;;;;;2.65;1.73;;;28.20;66.80;;;;;;7677321;22;80335;-63
2023/09/22 11:36:29;;;;;;;4.68;2.00;;;28.20;61.90;;;;;;7678518;22;80546;-58
2023/09/22 11:39:30;;;;;;;5.18;2.05;;;28.30;64.60;;;;;;7677379;22;80362;-58
2023/09/22 11:42:31;;;;;;;6.75;2.28;;;28.30;68.40;;;;;;7676737;22;80318;-58
2023/09/22 11:45:31;;;;;;;5.60;2.22;;;28.30;66.50;;;;;;7677935;22;81639;-58
2023/09/22 11:48:32;;;;;;;5.20;1.73;;;28.30;63.50;;;;;;7650495;22;81616;-58
2023/09/22 11:51:32;;;;;;;4.88;2.70;;;28.40;62.80;;;;;;7534147;22;82255;-58
2023/09/22 11:54:33;;;;;;;3.45;1.67;;;28.40;66.30;;;;;;7511126;22;82460;-61
2023/09/22 11:57:33;;;;;;;5.82;2.10;;;28.30;63.40;;;;;;7524936;22;81874;-62
2023/09/22 12:00:34;;;;;;;6.22;2.28;;;28.40;63.60;;;;;;7521549;22;81645;-61
2023/09/22 12:03:35;;;;;;;4.50;2.05;;;28.40;64.00;;;;;;7508410;22;81553;-61
2023/09/22 12:06:37;;;;;;;5.75;2.22;;;28.40;63.90;;;;;;7514742;22;82145;-60
2023/09/22 12:09:39;;;;;;;5.70;2.00;;;28.40;64.10;;;;;;7526465;22;80698;-63
2023/09/22 12:12:40;;;;;;;6.22;2.10;;;28.40;64.00;;;;;;7524862;22;82171;-61
2023/09/22 12:15:41;;;;;;;5.35;1.80;;;28.50;63.90;;;;;;7525917;22;81690;-62
2023/09/22 12:18:41;;;;;;;6.97;2.08;;;28.50;66.40;;;;;;7524867;22;81360;-61
2023/09/22 12:21:42;;;;;;;2.65;1.92;;;28.40;62.30;;;;;;7525529;22;82232;-61
2023/09/22 12:24:43;;;;;;;8.80;2.00;;;28.40;60.80;;;;;;7525032;22;82005;-61
2023/09/22 12:27:43;;;;;;;4.63;1.80;;;28.40;62.70;;;;;;7527215;22;81835;-63
2023/09/22 12:30:44;;;;;;;12.70;2.10;;;28.40;64.00;;;;;;7523521;22;82061;-61
2023/09/22 12:33:45;;;;;;;5.20;1.88;;;28.40;62.90;;;;;;7530034;22;82037;-62
2023/09/22 12:36:45;;;;;;;4.97;2.28;;;28.40;61.50;;;;;;7525252;22;82152;-59
2023/09/22 12:39:46;;;;;;;7.38;1.83;;;28.40;62.00;;;;;;7500897;22;81833;-59
2023/09/22 12:42:46;;;;;;;4.93;1.75;;;28.40;61.70;;;;;;7526220;22;81535;-60
2023/09/22 12:45:47;;;;;;;3.85;1.85;;;28.40;64.10;;;;;;7529245;22;81804;-56
2023/09/22 12:48:47;;;;;;;4.40;2.22;;;28.40;61.40;;;;;;7531432;22;82300;-53
2023/09/22 12:51:48;;;;;;;4.45;2.13;;;28.30;61.30;;;;;;7527812;22;82149;-52
2023/09/22 12:54:49;;;;;;;6.05;1.75;;;28.30;61.90;;;;;;7528011;22;82217;-53
2023/09/22 12:57:50;;;;;;;6.22;2.20;;;28.30;60.60;;;;;;7525561;22;82178;-54
2023/09/22 13:00:50;;;;;;;6.72;2.08;;;28.20;61.20;;;;;;7523507;22;81345;-55
2023/09/22 13:03:51;;;;;;;4.25;1.92;;;28.20;60.10;;;;;;7530060;22;82219;-54
2023/09/22 13:06:53;;;;;;;6.88;2.20;;;28.20;60.10;;;;;;7526461;22;81697;-58
2023/09/22 13:09:54;;;;;;;4.68;1.88;;;28.10;61.90;;;;;;7501901;22;83543;-57
2023/09/22 13:12:55;;;;;;;5.88;2.45;;;28.10;61.60;;;;;;7525641;22;82091;-56
2023/09/22 13:15:55;;;;;;;4.80;2.17;;;28.10;59.50;;;;;;7522309;22;81538;-58
2023/09/22 13:18:56;;;;;;;6.57;2.60;;;28.10;59.50;;;;;;7526766;22;81134;-58
2023/09/22 13:21:57;;;;;;;7.35;2.08;;;28.10;58.90;;;;;;7521944;22;82542;-64
2023/09/22 13:24:57;;;;;;;4.47;2.40;;;28.10;61.00;;;;;;7524621;22;81544;-63
2023/09/22 13:27:58;;;;;;;5.28;2.15;;;28.10;58.90;;;;;;7525071;22;82043;-61
2023/09/22 13:30:59;;;;;;;5.93;2.10;;;28.00;57.80;;;;;;7499728;22;81128;-61
2023/09/22 13:33:59;;;;;;;3.50;1.63;;;28.00;58.70;;;;;;7524295;22;80432;-60
2023/09/22 13:37:00;;;;;;;5.53;2.00;;;28.00;59.80;;;;;;7523359;22;81769;-62
2023/09/22 13:40:01;;;;;;;5.93;2.20;;;28.10;59.90;;;;;;7524582;22;81771;-56
2023/09/22 13:43:01;;;;;;;6.45;2.42;;;28.10;59.30;;;;;;7526704;22;81729;-50
2023/09/22 13:46:02;;;;;;;6.10;2.28;;;28.00;57.80;;;;;;7522701;22;81703;-53
2023/09/22 13:49:02;;;;;;;9.35;2.40;;;28.00;58.50;;;;;;7526847;22;81637;-49
2023/09/22 13:52:03;;;;;;;7.88;2.60;;;28.00;58.00;;;;;;7529172;22;81855;-53
2023/09/22 13:55:04;;;;;;;4.70;1.92;;;27.90;58.80;;;;;;7503900;22;82137;-57
2023/09/22 13:58:05;;;;;;;3.38;2.05;;;27.90;58.80;;;;;;7525485;22;82930;-54
2023/09/22 14:01:05;;;;;;;8.73;2.53;;;28.00;59.60;;;;;;7526880;22;82648;-59
2023/09/22 14:04:06;;;;;;;5.53;2.30;;;27.90;58.90;;;;;;7527378;22;81875;-57
2023/09/22 14:07:07;;;;;;;5.63;2.10;;;28.00;58.20;;;;;;7524214;22;82079;-59
2023/09/22 14:10:11;;;;;;;8.93;2.58;;;27.90;58.80;;;;;;7531343;22;82047;-58
2023/09/22 14:13:11;;;;;;;3.28;2.08;;;28.00;58.50;;;;;;7529017;22;81592;-57
2023/09/22 14:16:12;;;;;;;10.73;2.10;;;28.00;59.40;;;;;;7528836;22;82013;-57
2023/09/22 14:19:13;;;;;;;7.93;2.38;;;28.00;58.20;;;;;;7527482;22;81798;-57
2023/09/22 14:22:14;;;;;;;8.80;2.50;;;27.90;57.60;;;;;;7523131;22;81759;-62
2023/09/22 14:25:14;;;;;;;7.65;2.92;;;28.00;57.90;;;;;;7492411;22;83711;-62
2023/09/22 14:28:15;;;;;;;7.30;2.83;;;27.90;57.70;;;;;;7520876;22;80534;-61
2023/09/22 14:31:15;;;;;;;6.53;2.10;;;28.00;58.50;;;;;;7523227;22;81619;-63
2023/09/22 14:34:16;;;;;;;5.03;2.22;;;28.00;58.20;;;;;;7523553;22;82006;-62
2023/09/22 14:37:17;;;;;;;3.42;2.15;;;28.00;57.90;;;;;;7544789;22;82344;-65
2023/09/22 14:40:17;;;;;;;5.93;2.47;;;27.90;57.70;;;;;;7677215;22;82936;-59
2023/09/22 14:43:18;;;;;;;5.82;2.55;;;27.90;58.30;;;;;;7676866;22;80388;-61
2023/09/22 14:46:18;;;;;;;5.00;3.00;;;27.90;57.90;;;;;;7678826;22;80524;-62
2023/09/22 14:49:19;;;;;;;6.35;3.15;;;27.90;57.90;;;;;;7676616;22;80643;-61
2023/09/22 14:52:20;;;;;;;5.97;2.63;;;27.90;57.90;;;;;;7677439;22;80061;-61
2023/09/22 14:55:20;;;;;;;14.32;3.05;;;27.80;57.00;;;;;;7650897;22;80648;-63
2023/09/22 14:58:21;;;;;;;3.35;1.90;;;27.80;56.90;;;;;;7678440;22;80881;-61
2023/09/22 15:01:21;;;;;;;7.85;2.30;;;27.80;58.10;;;;;;7677680;22;80398;-60
2023/09/22 15:04:22;;;;;;;6.85;2.47;;;27.70;58.00;;;;;;7675102;22;81307;-63
2023/09/22 15:07:22;;;;;;;5.43;2.67;;;27.70;57.40;;;;;;7648351;22;83204;-61
2023/09/22 15:10:23;;;;;;;7.63;2.50;;;27.70;57.80;;;;;;7677616;22;80927;-61
2023/09/22 15:13:24;;;;;;;7.35;2.70;;;27.60;57.50;;;;;;7675416;22;80230;-63
2023/09/22 15:16:24;;;;;;;6.70;2.47;;;27.60;57.20;;;;;;7677192;22;80499;-53
2023/09/22 15:19:26;;;;;;;5.80;2.92;;;27.50;56.90;;;;;;7677295;22;80803;-52
2023/09/22 15:22:28;;;;;;;7.07;2.53;;;27.50;57.10;;;;;;7677716;22;80398;-52
2023/09/22 15:25:29;;;;;;;3.85;2.63;;;27.50;56.60;;;;;;7651439;22;80708;-53
2023/09/22 15:28:29;;;;;;;5.90;2.55;;;27.40;56.60;;;;;;7651086;22;82277;-53
2023/09/22 15:31:30;;;;;;;18.10;3.30;;;27.40;56.50;;;;;;7678497;22;81068;-51
2023/09/22 15:34:33;;;;;;;11.50;2.97;;;27.30;56.80;;;;;;7678450;22;81106;-56
2023/09/22 15:37:34;;;;;;;12.00;3.22;;;27.30;57.10;;;;;;7677626;22;80536;-58
2023/09/22 15:40:35;;;;;;;12.95;3.65;;;27.30;57.00;;;;;;7679023;22;80299;-58
2023/09/22 15:43:35;;;;;;;12.93;3.00;;;27.30;57.20;;;;;;7679023;22;80186;-57
2023/09/22 15:46:36;;;;;;;11.80;3.10;;;27.30;57.10;;;;;;7678330;22;80305;-57
2023/09/22 15:49:37;;;;;;;7.63;2.58;;;27.30;57.10;;;;;;7679385;22;79998;-58
2023/09/22 15:52:38;;;;;;;6.25;2.47;;;27.30;57.30;;;;;;7681072;22;80046;-53
2023/09/22 15:55:38;;;;;;;11.13;3.22;;;27.30;57.40;;;;;;7679376;22;81053;-51
2023/09/22 15:58:39;;;;;;;8.77;3.40;;;27.30;57.30;;;;;;7677995;22;80310;-53
2023/09/22 16:01:39;;;;;;;7.93;2.72;;;27.20;57.40;;;;;;7678584;22;80467;-52
2023/09/22 16:04:40;;;;;;;7.15;3.13;;;27.20;57.50;;;;;;7676920;22;80674;-51
2023/09/22 16:07:40;;;;;;;12.15;3.53;;;27.20;57.80;;;;;;7644200;22;81662;-54
2023/09/22 16:10:44;;;;;;;8.65;3.03;;;27.10;57.90;;;;;;7677628;22;80790;-53
2023/09/22 16:13:44;;;;;;;8.10;2.75;;;27.10;57.90;;;;;;7678715;22;80569;-55
2023/09/22 16:16:45;;;;;;;9.65;3.67;;;27.10;57.90;;;;;;7680724;22;80573;-53
2023/09/22 16:19:46;;;;;;;17.13;3.63;;;27.10;57.60;;;;;;7679696;22;80434;-50
2023/09/22 16:22:46;;;;;;;11.57;4.28;;;27.10;57.90;;;;;;7677633;22;80306;-53
2023/09/22 16:25:48;;;;;;;9.23;3.92;;;27.10;57.80;;;;;;7665627;22;80860;-50
2023/09/22 16:28:48;;;;;;;11.80;4.10;;;27.10;57.80;;;;;;7659063;22;80597;-58
2023/09/22 16:31:49;;;;;;;14.60;4.10;;;27.10;58.10;;;;;;7660696;22;81060;-57
2023/09/22 16:34:50;;;;;;;10.27;4.53;;;27.00;58.20;;;;;;7660169;22;81354;-53
2023/09/22 16:37:51;;;;;;;13.20;4.90;;;27.00;58.40;;;;;;7656752;22;80594;-54
2023/09/22 16:40:51;;;;;;;10.18;4.15;;;27.00;58.50;;;;;;7631446;22;83424;-54
2023/09/22 16:43:52;;;;;;;8.07;3.85;;;26.90;58.70;;;;;;7659040;22;80542;-56
2023/09/22 16:46:52;;;;;;;7.20;3.78;;;26.90;58.90;;;;;;7629783;22;81243;-53
2023/09/22 16:49:53;;;;;;;9.93;3.45;;;26.90;58.70;;;;;;7656541;22;81385;-47
2023/09/22 16:52:53;;;;;;;7.72;3.38;;;26.80;59.00;;;;;;7660439;22;80555;-52
2023/09/22 16:55:55;;;;;;;10.40;4.40;;;26.80;59.20;;;;;;7659921;22;80962;-49
2023/09/22 16:58:55;;;;;;;9.02;4.32;;;26.90;59.70;;;;;;7656248;22;81120;-51
2023/09/22 17:01:56;;;;;;;11.82;5.10;;;26.90;59.90;;;;;;7658568;22;81112;-50
2023/09/22 17:04:57;;;;;;;10.80;5.53;;;26.90;59.70;;;;;;7659880;22;80864;-52
2023/09/22 17:07:57;;;;;;;15.20;6.32;;;26.80;59.80;;;;;;7656236;22;81011;-50
2023/09/22 17:10:58;;;;;;;13.70;7.07;;;26.80;60.00;;;;;;7660890;22;81372;-49
2023/09/22 17:13:58;;;;;;;21.20;6.95;;;26.80;60.20;;;;;;7633364;22;81945;-52
2023/09/22 17:16:59;;;;;;;14.23;7.05;;;26.80;60.20;;;;;;7660366;22;80830;-52
2023/09/22 17:20:00;;;;;;;17.52;7.53;;;26.80;60.00;;;;;;7656358;22;81292;-52
2023/09/22 17:23:01;;;;;;;16.20;8.55;;;26.80;60.00;;;;;;7660290;22;81072;-48
2023/09/22 17:26:01;;;;;;;20.40;10.07;;;26.80;59.90;;;;;;7671605;22;80585;-63
2023/09/22 17:29:03;;;;;;;19.95;10.60;;;26.80;59.90;;;;;;7661544;22;82948;-67
2023/09/22 17:32:04;;;;;;;20.63;10.32;;;26.80;59.80;;;;;;7656671;22;83625;-69
2023/09/22 17:35:05;;;;;;;23.88;10.68;;;26.80;59.80;;;;;;7646923;22;84473;-68
2023/09/22 17:38:13;;;;;;;25.25;10.85;;;26.80;60.10;;;;;;7653210;22;83929;-67
2023/09/22 17:41:14;;;;;;;21.95;11.15;;;26.70;60.00;;;;;;7653477;22;84268;-54
2023/09/22 17:44:14;;;;;;;24.80;10.93;;;26.80;60.30;;;;;;7654246;22;83885;-57
2023/09/22 17:47:15;;;;;;;23.95;11.35;;;26.70;60.10;;;;;;7656130;22;83307;-57
2023/09/22 17:50:16;;;;;;;25.65;10.48;;;26.70;60.40;;;;;;7652679;22;83345;-57
2023/09/22 17:53:19;;;;;;;17.77;10.70;;;26.70;60.40;;;;;;7656556;22;84419;-53
2023/09/22 17:56:20;;;;;;;23.08;10.30;;;26.70;61.10;;;;;;7654859;22;83600;-56
2023/09/22 17:59:20;;;;;;;22.33;10.77;;;26.70;60.70;;;;;;7651772;22;83279;-56
2023/09/22 18:02:21;;;;;;;19.90;9.45;;;26.70;60.90;;;;;;7659506;22;84265;-62
2023/09/22 18:05:21;;;;;;;36.60;10.80;;;26.70;61.30;;;;;;7659129;22;82819;-65
2023/09/22 18:08:22;;;;;;;18.55;9.80;;;26.70;61.20;;;;;;7659642;22;83294;-64
2023/09/22 18:11:22;;;;;;;19.75;10.63;;;26.60;61.00;;;;;;7663945;22;82894;-62
2023/09/22 18:14:23;;;;;;;22.20;10.15;;;26.70;61.20;;;;;;7656575;22;83970;-63
2023/09/22 18:17:23;;;;;;;20.27;9.73;;;26.70;61.30;;;;;;7660910;22;83874;-66
2023/09/22 18:20:24;;;;;;;19.23;10.15;;;26.70;61.30;;;;;;7657665;22;82511;-67
2023/09/22 18:23:25;;;;;;;21.73;9.25;;;26.70;61.50;;;;;;7632302;22;84008;-64
2023/09/22 18:26:25;;;;;;;18.27;8.95;;;26.70;62.00;;;;;;7660649;22;82876;-65
2023/09/22 18:29:27;;;;;;;20.90;9.35;;;26.70;62.20;;;;;;7659641;22;81383;-63
2023/09/22 18:32:27;;;;;;;21.23;9.32;;;26.70;62.50;;;;;;7664251;22;81144;-66
2023/09/22 18:35:28;;;;;;;22.63;8.82;;;26.70;62.70;;;;;;7658417;22;81260;-64
2023/09/22 18:38:28;;;;;;;17.95;8.38;;;26.70;62.80;;;;;;7663754;22;80707;-65
2023/09/22 18:41:29;;;;;;;19.80;8.80;;;26.60;62.80;;;;;;7656381;22;80642;-62
2023/09/22 18:44:29;;;;;;;16.08;8.80;;;26.70;63.00;;;;;;7658476;22;80899;-62
2023/09/22 18:47:30;;;;;;;20.65;8.73;;;26.70;63.20;;;;;;7655616;22;80898;-64
2023/09/22 18:50:30;;;;;;;17.02;8.63;;;26.70;63.00;;;;;;7660122;22;81269;-61
2023/09/22 18:53:32;;;;;;;18.38;9.15;;;26.80;62.80;;;;;;7661442;22;81010;-62
2023/09/22 18:56:35;;;;;;;16.98;8.48;;;26.80;62.50;;;;;;7654890;22;84772;-64
2023/09/22 18:59:36;;;;;;;19.23;9.43;;;26.80;63.30;;;;;;7633994;22;82363;-65
2023/09/22 19:02:37;;;;;;;13.98;8.80;;;26.80;62.70;;;;;;7657003;22;81621;-67
2023/09/22 19:05:37;;;;;;;18.63;9.18;;;26.80;62.70;;;;;;7661809;22;81500;-63
2023/09/22 19:08:39;;;;;;;12.18;8.20;;;26.90;62.80;;;;;;7661909;22;81330;-66
2023/09/22 19:11:40;;;;;;;15.73;8.52;;;26.90;62.60;;;;;;7660626;22;80941;-66
2023/09/22 19:14:40;;;;;;;21.50;9.27;;;26.90;62.60;;;;;;7661199;22;80924;-63
2023/09/22 19:17:41;;;;;;;20.20;9.07;;;26.90;62.80;;;;;;7658890;22;80873;-64
2023/09/22 19:20:42;;;;;;;19.10;8.73;;;26.90;62.70;;;;;;7662967;22;81315;-65
2023/09/22 19:23:45;;;;;;;18.60;8.65;;;26.90;62.80;;;;;;7663864;22;81288;-64
2023/09/22 19:26:51;;;;;;;21.85;8.10;;;26.90;62.90;;;;;;7665138;22;81517;-65
2023/09/22 19:29:52;;;;;;;18.45;8.82;;;26.90;62.90;;;;;;7665935;22;81033;-55
2023/09/22 19:32:52;;;;;;;15.60;8.35;;;26.80;63.00;;;;;;7662764;22;81560;-55
2023/09/22 19:35:53;;;;;;;13.55;8.13;;;26.80;63.00;;;;;;7667742;22;80827;-54
2023/09/22 19:38:54;;;;;;;11.68;7.80;;;26.80;63.00;;;;;;7665406;22;80636;-56
2023/09/22 19:41:54;;;;;;;15.23;8.27;;;26.80;62.90;;;;;;7665575;22;81412;-56
2023/09/22 19:44:55;;;;;;;14.88;8.05;;;26.80;62.80;;;;;;7639499;22;83266;-55
2023/09/22 19:47:55;;;;;;;18.65;8.23;;;26.70;62.80;;;;;;7663028;22;81237;-53
2023/09/22 19:50:57;;;;;;;11.75;7.78;;;26.70;62.90;;;;;;7640040;22;81049;-65
2023/09/22 19:53:59;;;;;;;14.85;8.13;;;26.70;63.10;;;;;;7662600;22;80463;-66
2023/09/22 19:57:00;;;;;;;15.45;8.65;;;26.70;63.10;;;;;;7668004;22;80921;-65
2023/09/22 20:00:00;;;;;;;15.82;8.38;;;26.70;63.10;;;;;;7662800;22;81152;-65
2023/09/22 20:03:01;;;;;;;20.40;9.60;;;26.70;63.10;;;;;;7665396;22;80953;-66
2023/09/22 20:06:01;;;;;;;15.65;8.73;;;26.70;63.10;;;;;;7665693;22;80886;-67
2023/09/22 20:09:08;;;;;;;15.52;7.03;;;26.70;63.60;;;;;;7659140;22;80841;-63
2023/09/22 20:12:09;;;;;;;17.63;7.90;;;26.60;63.20;;;;;;7668238;22;80931;-65
2023/09/22 20:15:13;;;;;;;13.68;7.88;;;26.70;63.00;;;;;;7662038;22;81356;-64
2023/09/22 20:18:13;;;;;;;14.52;7.95;;;26.70;62.90;;;;;;7665267;22;81269;-62
2023/09/22 20:21:14;;;;;;;18.15;7.20;;;26.70;62.80;;;;;;7665202;22;82621;-61
2023/09/22 20:24:15;;;;;;;14.55;7.78;;;26.70;62.70;;;;;;7663979;22;82181;-62
2023/09/22 20:27:15;;;;;;;13.32;6.68;;;26.70;62.90;;;;;;7667917;22;81107;-66
2023/09/22 20:30:16;;;;;;;14.52;6.78;;;26.70;62.70;;;;;;7673641;22;80494;-62
2023/09/22 20:33:16;;;;;;;13.13;7.05;;;26.70;62.80;;;;;;7671691;22;81032;-61
2023/09/22 20:36:17;;;;;;;11.43;6.35;;;26.70;62.80;;;;;;7646989;22;80979;-62
2023/09/22 20:39:17;;;;;;;12.55;6.90;;;26.60;62.60;;;;;;7651077;22;81603;-62
2023/09/22 20:42:18;;;;;;;16.63;7.28;;;26.60;62.60;;;;;;7679199;22;80627;-62
2023/09/22 20:45:19;;;;;;;12.40;6.18;;;26.60;62.80;;;;;;7653293;22;83993;-64
2023/09/22 20:48:19;;;;;;;13.68;7.35;;;26.60;62.70;;;;;;7678693;22;80519;-62
2023/09/22 20:51:20;;;;;;;21.08;8.07;;;26.50;62.80;;;;;;7678945;22;80463;-63